Terminal Aerodrome Forecast
Issued by NWS

Home | Current Version | Previous Version | Text Only | Print | Product List | Glossary On
Versions: 1 2 3 4 5 6 7 8 9 10 11 12 13
136
FTUS45 KMSO 032320
TAFSMN
TAF
KSMN 032320Z 0400/0424 VRB04KT P6SM VCSH OVC070
     FM041200 VRB03KT P6SM VCSH OVC050
     FM041600 VRB03KT P6SM -SN OVC035
     FM042000 23006KT 2SM -SN BKN020 OVC030
      AMD LTD TO CLD VIS AND WIND=

USA.gov is the U.S. government's official web portal to all federal, state and local government web resources and services.